Terminal Aerodrome Forecast
Issued by NWS

Home | Current Version | Previous Version | Text Only | Print | Product List | Glossary On
Versions: 1 2 3 4 5 6 7 8 9 10 11 12 13 14 15 16 17
000
FTUS46 KSEW 302300 AAA
TAFBLI
TAF AMD
KBLI 302354Z 3100/3124 VRB03KT P6SM SCT090 BKN250
      TEMPO 3100/3103 BKN090 BKN250
     FM310600 00000KT 5SM BR SCT250
     FM310800 00000KT 1SM BR VV002
     FM311000 00000KT 1/4SM FG VV001
     FM311900 01005KT 3SM BR BKN003 OVC250
     FM312100 33005KT P6SM SCT100 OVC250=

USA.gov is the U.S. government's official web portal to all federal, state and local government web resources and services.